createdAt,value
2019-02-09T00:01:36.583Z,5.87
2019-02-09T00:04:05.472Z,12.87
2019-02-09T00:06:34.240Z,7.90
2019-02-09T00:09:03.033Z,6.80
2019-02-09T00:11:31.819Z,9.80
2019-02-09T00:14:00.608Z,8.57
2019-02-09T00:16:29.396Z,8.10
2019-02-09T00:18:58.175Z,12.27
2019-02-09T00:21:26.952Z,8.57
2019-02-09T00:23:55.733Z,5.67
2019-02-09T00:26:24.514Z,7.37
2019-02-09T00:28:53.312Z,11.93
2019-02-09T00:31:22.095Z,8.33
2019-02-09T00:33:50.895Z,9.80
2019-02-09T00:36:19.691Z,9.40
2019-02-09T00:38:48.469Z,14.03
2019-02-09T00:41:17.267Z,11.27
2019-02-09T00:43:46.093Z,5.33
2019-02-09T00:46:14.894Z,11.03
2019-02-09T00:48:43.722Z,9.90
2019-02-09T00:51:12.515Z,9.90
2019-02-09T00:53:41.335Z,12.27
2019-02-09T00:56:10.127Z,9.83
2019-02-09T00:58:38.906Z,19.00
2019-02-09T01:01:07.694Z,7.10
2019-02-09T01:03:36.496Z,8.10
2019-02-09T01:06:05.356Z,7.57
2019-02-09T01:08:34.179Z,5.43
2019-02-09T01:11:03.007Z,9.97
2019-02-09T01:13:31.792Z,9.33
2019-02-09T01:16:00.583Z,10.13
2019-02-09T01:18:29.357Z,8.73
2019-02-09T01:20:58.186Z,9.10
2019-02-09T01:23:26.954Z,8.03
2019-02-09T01:25:55.743Z,7.10
2019-02-09T01:28:24.528Z,7.87
2019-02-09T01:30:53.353Z,4.83
2019-02-09T01:33:22.152Z,7.97
2019-02-09T01:35:50.936Z,8.17
2019-02-09T01:38:19.726Z,5.70
2019-02-09T01:40:48.520Z,5.30
2019-02-09T01:43:17.321Z,8.63
2019-02-09T01:45:46.084Z,8.20
2019-02-09T01:48:14.991Z,8.57
2019-02-09T01:50:43.774Z,6.80
2019-02-09T01:53:12.649Z,6.77
2019-02-09T01:55:41.457Z,15.50
2019-02-09T01:58:10.248Z,8.97
2019-02-09T02:00:39.071Z,12.47
2019-02-09T02:03:07.874Z,11.93
2019-02-09T02:05:36.647Z,7.03
2019-02-09T02:08:05.402Z,6.73
2019-02-09T02:10:35.816Z,9.37
2019-02-09T02:13:06.040Z,12.10
2019-02-09T02:15:34.830Z,8.87
2019-02-09T02:18:03.662Z,15.00
2019-02-09T02:20:33.335Z,10.13
2019-02-09T02:23:02.135Z,8.43
2019-02-09T02:25:30.931Z,8.33
2019-02-09T02:27:59.708Z,13.70
2019-02-09T02:30:30.312Z,12.90
2019-02-09T02:32:59.094Z,9.50
2019-02-09T02:35:27.891Z,10.33
2019-02-09T02:37:56.753Z,13.33
2019-02-09T02:40:25.544Z,8.73
2019-02-09T02:42:54.305Z,5.87
2019-02-09T02:45:23.145Z,6.03
2019-02-09T02:47:51.931Z,9.73
2019-02-09T02:50:20.801Z,7.77
2019-02-09T02:52:49.571Z,6.63
2019-02-09T02:55:21.188Z,5.60
2019-02-09T02:57:51.513Z,7.53
2019-02-09T03:00:30.999Z,9.63
2019-02-09T03:02:51.164Z,8.03
2019-02-09T03:05:20.570Z,13.00
2019-02-09T03:07:49.411Z,8.43
2019-02-09T03:10:18.275Z,5.53
2019-02-09T03:12:47.051Z,9.37
2019-02-09T03:15:18.888Z,7.10
2019-02-09T03:17:47.696Z,3.90
2019-02-09T03:20:17.368Z,3.30
2019-02-09T03:22:46.217Z,4.57
2019-02-09T03:25:17.417Z,5.57
2019-02-09T03:27:46.222Z,8.23
2019-02-09T03:30:15.788Z,13.47
2019-02-09T03:32:44.609Z,11.87
2019-02-09T03:35:13.661Z,17.17
2019-02-09T03:37:42.514Z,20.17
2019-02-09T03:40:13.691Z,19.30
2019-02-09T03:42:42.486Z,14.70
2019-02-09T03:45:14.767Z,21.73
2019-02-09T03:47:43.555Z,18.97
2019-02-09T03:50:12.967Z,23.60
2019-02-09T03:52:41.776Z,21.87
2019-02-09T03:55:10.563Z,18.27
2019-02-09T03:57:39.347Z,16.57
2019-02-09T04:00:11.391Z,19.90
2019-02-09T04:02:40.166Z,17.80
2019-02-09T04:05:09.458Z,24.07
2019-02-09T04:07:38.295Z,25.03
2019-02-09T04:10:08.060Z,22.03
2019-02-09T04:12:36.845Z,21.47
2019-02-09T04:15:07.116Z,20.97
2019-02-09T04:17:35.914Z,15.07
2019-02-09T04:20:06.466Z,32.00
2019-02-09T04:22:35.322Z,17.90
2019-02-09T04:25:04.623Z,16.77
2019-02-09T04:27:33.419Z,22.03
2019-02-09T04:30:02.276Z,24.30
2019-02-09T04:32:31.062Z,31.63
2019-02-09T04:34:59.838Z,19.17
2019-02-09T04:37:28.774Z,16.13
2019-02-09T04:39:57.553Z,19.77
2019-02-09T04:42:26.394Z,20.57
2019-02-09T04:45:01.956Z,29.23
2019-02-09T04:47:30.808Z,10.70
2019-02-09T04:49:59.664Z,23.70
2019-02-09T04:52:28.518Z,26.70
2019-02-09T04:54:57.315Z,26.53
2019-02-09T04:57:26.145Z,18.90
2019-02-09T04:59:54.931Z,20.27
2019-02-09T05:02:23.733Z,18.33
2019-02-09T05:04:52.531Z,22.27
2019-02-09T05:07:21.312Z,21.17
2019-02-09T05:09:50.117Z,22.00
2019-02-09T05:12:18.970Z,25.73
2019-02-09T05:14:47.855Z,30.63
2019-02-09T05:17:16.718Z,25.67
2019-02-09T05:19:45.554Z,20.37
2019-02-09T05:22:14.454Z,24.97
2019-02-09T05:24:43.238Z,27.50
2019-02-09T05:27:12.037Z,18.07
2019-02-09T05:29:40.822Z,20.77
2019-02-09T05:32:09.618Z,22.60
2019-02-09T05:34:38.407Z,15.63
2019-02-09T05:37:10.967Z,17.50
2019-02-09T05:39:39.761Z,17.73
2019-02-09T05:42:08.555Z,20.27
2019-02-09T05:44:37.381Z,24.43
2019-02-09T05:47:06.189Z,14.10
2019-02-09T05:49:35.006Z,23.93
2019-02-09T05:52:03.797Z,20.93
2019-02-09T05:54:32.567Z,22.30
2019-02-09T05:57:01.335Z,19.50
2019-02-09T05:59:30.458Z,20.97
2019-02-09T06:01:59.272Z,24.13
2019-02-09T06:04:28.063Z,26.57
2019-02-09T06:06:56.870Z,22.63
2019-02-09T06:09:25.666Z,20.43
2019-02-09T06:11:54.479Z,27.07
2019-02-09T06:14:23.280Z,26.30
2019-02-09T06:16:52.121Z,23.90
2019-02-09T06:19:20.883Z,27.40
2019-02-09T06:21:49.667Z,23.33
2019-02-09T06:24:18.532Z,25.80
2019-02-09T06:26:47.356Z,26.63
2019-02-09T06:29:16.222Z,25.03
2019-02-09T06:31:44.971Z,21.53
2019-02-09T06:34:13.808Z,20.17
2019-02-09T06:36:42.600Z,17.10
2019-02-09T06:39:11.389Z,22.13
2019-02-09T06:41:41.501Z,24.47
2019-02-09T06:44:10.316Z,23.23
2019-02-09T06:46:39.084Z,24.57
2019-02-09T06:49:07.880Z,20.20
2019-02-09T06:51:36.683Z,16.70
2019-02-09T06:54:05.568Z,22.53
2019-02-09T06:56:34.351Z,22.77
2019-02-09T06:59:03.162Z,14.27
2019-02-09T07:01:31.971Z,23.47
2019-02-09T07:04:00.803Z,28.43
2019-02-09T07:06:29.693Z,23.37
2019-02-09T07:08:58.468Z,29.97
2019-02-09T07:11:27.257Z,24.03
2019-02-09T07:13:56.031Z,21.80
2019-02-09T07:16:24.868Z,27.10
2019-02-09T07:18:53.642Z,24.03
2019-02-09T07:21:22.483Z,18.93
2019-02-09T07:23:51.271Z,31.27
2019-02-09T07:26:20.052Z,25.53
2019-02-09T07:31:22.854Z,34.13
2019-02-09T07:33:51.670Z,27.47
2019-02-09T07:36:20.987Z,30.90
2019-02-09T07:38:49.824Z,30.80
2019-02-09T07:41:18.628Z,35.00
2019-02-09T07:43:47.465Z,34.50
2019-02-09T07:46:17.899Z,30.50
2019-02-09T07:48:46.732Z,31.93
2019-02-09T07:51:16.361Z,31.23
2019-02-09T07:53:45.136Z,31.53
2019-02-09T07:56:13.971Z,29.60
2019-02-09T07:58:43.380Z,41.40
2019-02-09T08:01:12.232Z,39.37
2019-02-09T08:03:41.071Z,33.40
2019-02-09T08:06:09.947Z,37.07
2019-02-09T08:08:38.773Z,36.23
2019-02-09T08:11:09.272Z,27.97
2019-02-09T08:13:36.406Z,29.10
2019-02-09T08:16:05.205Z,27.20
2019-02-09T08:18:34.590Z,34.30
2019-02-09T08:21:03.424Z,24.33
2019-02-09T08:23:32.270Z,38.23
2019-02-09T08:26:01.140Z,25.53
2019-02-09T08:28:29.942Z,33.97
2019-02-09T08:30:58.734Z,35.20
2019-02-09T08:33:27.531Z,28.83
2019-02-09T08:35:56.318Z,24.93
2019-02-09T08:38:25.146Z,36.03
2019-02-09T08:40:53.992Z,35.60
2019-02-09T08:43:22.851Z,27.23
2019-02-09T08:45:51.740Z,37.40
2019-02-09T08:48:20.523Z,29.17
2019-02-09T08:50:55.302Z,26.87
2019-02-09T08:53:24.173Z,42.93
2019-02-09T08:55:52.955Z,25.63
2019-02-09T08:58:21.744Z,31.70
2019-02-09T09:00:50.585Z,23.03
2019-02-09T09:03:19.483Z,35.47
2019-02-09T09:05:48.283Z,19.73
2019-02-09T09:08:17.078Z,29.53
2019-02-09T09:10:45.919Z,25.27
2019-02-09T09:13:14.799Z,25.27
2019-02-09T09:15:47.983Z,33.33
2019-02-09T09:18:16.770Z,23.07
2019-02-09T09:20:48.536Z,27.10
2019-02-09T09:23:17.411Z,18.17
2019-02-09T09:25:46.207Z,22.10
2019-02-09T09:28:15.000Z,21.77
2019-02-09T09:30:43.807Z,32.53
2019-02-09T09:33:12.572Z,21.93
2019-02-09T09:35:41.393Z,29.47
2019-02-09T09:38:10.195Z,31.70
2019-02-09T09:40:40.266Z,23.13
2019-02-09T09:43:09.079Z,27.33
2019-02-09T09:45:38.435Z,29.33
2019-02-09T09:48:08.899Z,26.33
2019-02-09T09:50:37.690Z,20.57
2019-02-09T09:53:06.503Z,31.13
2019-02-09T09:55:35.308Z,18.60
2019-02-09T09:58:04.405Z,24.50
2019-02-09T10:00:33.164Z,31.97
2019-02-09T10:03:01.963Z,23.00
2019-02-09T10:05:30.821Z,30.97
2019-02-09T10:07:59.667Z,29.10
2019-02-09T10:10:28.450Z,27.57
2019-02-09T10:12:57.325Z,29.33
2019-02-09T10:15:26.143Z,28.60
2019-02-09T10:17:54.941Z,29.20
2019-02-09T10:20:24.304Z,28.00
2019-02-09T10:22:53.231Z,25.77
2019-02-09T10:25:22.044Z,26.40
2019-02-09T10:27:51.039Z,21.00
2019-02-09T10:30:21.700Z,29.10
2019-02-09T10:32:50.556Z,30.63
2019-02-09T10:35:20.451Z,25.77
2019-02-09T10:37:49.256Z,28.43
2019-02-09T10:40:20.207Z,22.17
2019-02-09T10:42:48.999Z,25.47
2019-02-09T10:45:19.955Z,27.27
2019-02-09T10:47:50.277Z,27.87
2019-02-09T10:50:22.657Z,23.87
2019-02-09T10:52:51.451Z,28.47
2019-02-09T10:55:20.297Z,24.20
2019-02-09T10:57:50.229Z,27.70
2019-02-09T11:00:22.087Z,27.33
2019-02-09T11:02:52.293Z,25.63
2019-02-09T11:05:19.691Z,26.17
2019-02-09T11:07:48.581Z,24.10
2019-02-09T11:13:27.276Z,19.00
2019-02-09T11:15:56.182Z,31.30
2019-02-09T11:18:25.009Z,25.33
2019-02-09T11:20:53.923Z,26.27
2019-02-09T11:23:25.042Z,20.20
2019-02-09T11:25:53.940Z,26.93
2019-02-09T11:28:23.302Z,22.90
2019-02-09T11:33:54.944Z,20.67
2019-02-09T11:39:14.786Z,25.30
2019-02-09T11:41:43.607Z,29.13
2019-02-09T11:44:12.419Z,20.17
2019-02-09T11:46:41.263Z,21.13
2019-02-09T11:49:10.100Z,22.10
2019-02-09T11:51:39.463Z,20.87
2019-02-09T11:54:08.241Z,21.03
2019-02-09T11:56:37.658Z,23.20
2019-02-09T11:59:06.430Z,19.83
2019-02-09T12:01:36.211Z,19.43
2019-02-09T12:04:05.267Z,25.17
2019-02-09T12:06:34.785Z,21.20
2019-02-09T12:09:05.142Z,18.03
2019-02-09T12:11:33.967Z,24.53
2019-02-09T12:14:02.806Z,17.03
2019-02-09T12:16:31.646Z,15.87
2019-02-09T12:19:00.460Z,24.20
2019-02-09T12:21:30.678Z,21.87
2019-02-09T12:24:00.420Z,29.60
2019-02-09T12:26:29.252Z,17.17
2019-02-09T12:28:58.071Z,16.70
2019-02-09T12:31:26.850Z,13.10
2019-02-09T12:33:55.695Z,21.50
2019-02-09T12:36:24.983Z,16.70
2019-02-09T12:38:53.760Z,15.53
2019-02-09T12:41:22.577Z,17.77
2019-02-09T12:43:52.055Z,19.10
2019-02-09T12:46:21.865Z,25.63
2019-02-09T12:48:50.689Z,17.33
2019-02-09T12:51:19.474Z,22.83
2019-02-09T12:53:48.328Z,19.13
2019-02-09T12:56:17.895Z,25.27
2019-02-09T12:58:46.674Z,20.67
2019-02-09T13:01:15.524Z,27.57
2019-02-09T13:03:45.303Z,19.77
2019-02-09T13:06:14.618Z,23.70
2019-02-09T13:08:43.443Z,22.33
2019-02-09T13:11:12.291Z,18.40
2019-02-09T13:13:41.154Z,23.80
2019-02-09T13:16:10.702Z,18.60
2019-02-09T13:18:40.362Z,24.73
2019-02-09T13:21:10.136Z,20.57
2019-02-09T13:23:39.704Z,28.87
2019-02-09T13:26:09.171Z,25.00
2019-02-09T13:28:38.024Z,22.37
2019-02-09T13:31:06.831Z,27.70
2019-02-09T13:33:38.989Z,19.27
2019-02-09T13:36:06.917Z,24.83
2019-02-09T13:38:34.725Z,26.60
2019-02-09T13:41:04.339Z,27.47
2019-02-09T13:43:33.931Z,36.20
2019-02-09T13:46:03.586Z,23.93
2019-02-09T13:48:32.378Z,27.63
2019-02-09T13:51:01.203Z,33.87
2019-02-09T13:53:30.000Z,26.40
2019-02-09T13:55:58.870Z,25.03
2019-02-09T13:58:27.863Z,26.17
2019-02-09T14:00:56.652Z,21.80
2019-02-09T14:03:26.022Z,23.00
2019-02-09T14:05:54.849Z,27.97
2019-02-09T14:08:23.658Z,32.23
2019-02-09T14:10:52.458Z,26.40
2019-02-09T14:13:22.519Z,30.70
2019-02-09T14:15:52.538Z,30.50
2019-02-09T14:18:21.338Z,32.03
2019-02-09T14:20:50.784Z,22.10
2019-02-09T14:23:20.563Z,20.77
2019-02-09T14:25:49.419Z,26.73
2019-02-09T14:28:18.228Z,23.70
2019-02-09T14:30:47.589Z,21.17
2019-02-09T14:33:16.507Z,21.77
2019-02-09T14:35:45.297Z,24.50
2019-02-09T14:38:14.570Z,23.77
2019-02-09T14:40:44.288Z,22.37
2019-02-09T14:43:13.608Z,24.10
2019-02-09T14:45:43.560Z,35.87
2019-02-09T14:48:13.902Z,29.67
2019-02-09T14:50:43.278Z,23.67
2019-02-09T14:53:12.126Z,31.80
2019-02-09T14:55:40.912Z,31.20
2019-02-09T14:58:09.734Z,25.27
2019-02-09T15:00:40.907Z,32.20
2019-02-09T15:03:10.103Z,30.63
2019-02-09T15:05:39.576Z,26.43
2019-02-09T15:08:09.201Z,32.53
2019-02-09T15:10:38.063Z,18.23
2019-02-09T15:13:08.151Z,27.73
2019-02-09T15:15:42.932Z,26.73
2019-02-09T15:18:11.751Z,24.80
2019-02-09T15:20:44.108Z,29.20
2019-02-09T15:23:12.903Z,27.27
2019-02-09T15:25:42.425Z,27.70
2019-02-09T15:28:12.545Z,24.33
2019-02-09T15:30:40.087Z,28.83
2019-02-09T15:33:10.155Z,25.67
2019-02-09T15:35:38.956Z,24.80
2019-02-09T15:38:07.788Z,23.40
2019-02-09T15:40:37.326Z,20.67
2019-02-09T15:43:06.105Z,20.80
2019-02-09T15:45:34.924Z,23.07
2019-02-09T15:48:03.926Z,30.60
2019-02-09T15:50:33.396Z,28.60
2019-02-09T15:53:02.331Z,22.53
2019-02-09T15:55:31.182Z,21.63
2019-02-09T15:58:01.114Z,26.50
2019-02-09T16:00:29.909Z,21.50
2019-02-09T16:02:58.706Z,24.23
2019-02-09T16:05:27.500Z,26.63
2019-02-09T16:07:57.088Z,25.63
2019-02-09T16:10:25.927Z,36.90
2019-02-09T16:13:01.504Z,26.93
2019-02-09T16:15:35.074Z,28.80
2019-02-09T16:18:03.874Z,28.27
2019-02-09T16:20:32.836Z,24.73
2019-02-09T16:23:01.611Z,26.27
2019-02-09T16:25:30.408Z,31.60
2019-02-09T16:27:59.272Z,34.37
2019-02-09T16:30:28.132Z,30.27
2019-02-09T16:32:57.730Z,31.07
2019-02-09T16:35:26.551Z,33.07
2019-02-09T16:37:56.758Z,30.13
2019-02-09T16:40:26.935Z,27.23
2019-02-09T16:42:56.275Z,31.00
2019-02-09T16:45:28.099Z,29.60
2019-02-09T16:47:56.887Z,26.37
2019-02-09T16:50:25.703Z,32.57
2019-02-09T16:52:54.536Z,24.83
2019-02-09T16:55:23.330Z,27.17
2019-02-09T16:57:52.169Z,29.87
2019-02-09T17:00:26.867Z,29.80
2019-02-09T17:02:55.729Z,23.30
2019-02-09T17:05:24.630Z,25.63
2019-02-09T17:07:53.419Z,25.93
2019-02-09T17:10:22.333Z,33.30
2019-02-09T17:12:51.126Z,29.07
2019-02-09T17:15:21.348Z,28.37
2019-02-09T17:17:50.227Z,33.03
2019-02-09T17:20:19.195Z,24.23
2019-02-09T17:22:47.995Z,30.40
2019-02-09T17:25:16.977Z,33.00
2019-02-09T17:27:45.786Z,30.87
2019-02-09T17:30:20.296Z,32.83
2019-02-09T17:32:49.358Z,36.80
2019-02-09T17:35:18.243Z,32.57
2019-02-09T17:37:47.059Z,32.77
2019-02-09T17:40:18.059Z,34.10
2019-02-09T17:42:53.190Z,26.10
2019-02-09T17:45:19.478Z,31.30
2019-02-09T17:47:48.279Z,23.17
2019-02-09T17:50:17.079Z,33.80
2019-02-09T17:52:45.870Z,26.83
2019-02-09T17:55:15.737Z,34.50
2019-02-09T17:57:45.423Z,24.27
2019-02-09T18:00:17.686Z,28.80
2019-02-09T18:02:46.483Z,28.23
2019-02-09T18:05:15.275Z,38.70
2019-02-09T18:07:44.838Z,23.23
2019-02-09T18:10:14.978Z,28.33
2019-02-09T18:12:44.347Z,22.30
2019-02-09T18:15:14.823Z,34.00
2019-02-09T18:17:43.619Z,33.23
2019-02-09T18:20:13.380Z,39.40
2019-02-09T18:22:42.171Z,36.70
2019-02-09T18:25:12.634Z,22.77
2019-02-09T18:27:41.441Z,33.20
2019-02-09T18:30:13.646Z,28.43
2019-02-09T18:32:42.487Z,43.90
2019-02-09T18:35:11.459Z,31.47
2019-02-09T18:37:40.256Z,36.13
2019-02-09T18:40:11.451Z,33.77
2019-02-09T18:42:40.511Z,27.23
2019-02-09T18:45:10.626Z,31.90
2019-02-09T18:47:39.425Z,25.37
2019-02-09T18:50:10.201Z,31.87
2019-02-09T18:52:39.037Z,33.43
2019-02-09T18:55:08.703Z,29.20
2019-02-09T18:57:37.567Z,26.10
2019-02-09T19:00:06.814Z,27.00
2019-02-09T19:02:38.521Z,33.07
2019-02-09T19:05:04.832Z,29.30
2019-02-09T19:07:33.565Z,39.73
2019-02-09T19:10:02.406Z,27.83
2019-02-09T19:12:31.231Z,25.53
2019-02-09T19:15:00.819Z,42.80
2019-02-09T19:17:30.627Z,29.90
2019-02-09T19:20:01.127Z,38.03
2019-02-09T19:22:29.959Z,50.63
2019-02-09T19:24:59.243Z,41.33
2019-02-09T19:27:28.098Z,35.40
2019-02-09T19:29:56.946Z,26.70
2019-02-09T19:32:26.441Z,36.67
2019-02-09T19:34:55.252Z,26.37
2019-02-09T19:37:24.104Z,32.43
2019-02-09T19:39:53.184Z,36.87
2019-02-09T19:42:22.012Z,41.87
2019-02-09T19:44:50.884Z,30.17
2019-02-09T19:47:19.711Z,33.57
2019-02-09T19:49:48.523Z,33.90
2019-02-09T19:52:17.883Z,43.90
2019-02-09T19:54:47.347Z,36.90
2019-02-09T19:57:17.875Z,41.10
2019-02-09T19:59:47.998Z,27.70
2019-02-09T20:02:19.264Z,34.97
2019-02-09T20:04:55.371Z,34.80
2019-02-09T20:07:45.648Z,40.00
2019-02-09T20:10:17.717Z,40.90
2019-02-09T20:12:46.516Z,39.43
2019-02-09T20:15:15.331Z,36.37
2019-02-09T20:17:44.127Z,42.17
2019-02-09T20:20:13.257Z,47.03
2019-02-09T20:22:42.148Z,44.70
2019-02-09T20:25:13.858Z,39.13
2019-02-09T20:27:42.677Z,28.10
2019-02-09T20:30:15.478Z,37.30
2019-02-09T20:32:44.266Z,33.57
2019-02-09T20:35:13.803Z,36.00
2019-02-09T20:37:42.694Z,46.33
2019-02-09T20:40:17.522Z,37.83
2019-02-09T20:42:46.360Z,34.80
2019-02-09T20:45:15.200Z,54.57
2019-02-09T20:47:48.645Z,33.27
2019-02-09T20:50:12.828Z,29.03
2019-02-09T20:52:41.690Z,32.63
2019-02-09T20:55:10.535Z,32.10
2019-02-09T20:57:39.394Z,32.93
2019-02-09T21:00:18.050Z,38.73
2019-02-09T21:02:40.310Z,23.33
2019-02-09T21:05:10.186Z,33.90
2019-02-09T21:07:38.982Z,32.43
2019-02-09T21:10:13.104Z,31.10
2019-02-09T21:12:42.047Z,32.30
2019-02-09T21:15:11.155Z,35.63
2019-02-09T21:17:40.070Z,31.27
2019-02-09T21:20:10.190Z,21.87
2019-02-09T21:22:38.993Z,27.40
2019-02-09T21:25:10.912Z,27.30
2019-02-09T21:27:39.696Z,31.13
2019-02-09T21:30:09.375Z,26.17
2019-02-09T21:32:40.346Z,30.50
2019-02-09T21:35:08.076Z,20.97
2019-02-09T21:37:36.918Z,27.10
2019-02-09T21:40:07.873Z,27.47
2019-02-09T21:42:37.348Z,31.03
2019-02-09T21:45:07.806Z,22.60
2019-02-09T21:47:36.595Z,28.80
2019-02-09T21:50:06.476Z,32.87
2019-02-09T21:52:35.250Z,22.27
2019-02-09T21:55:05.360Z,36.57
2019-02-09T21:57:34.268Z,23.53
2019-02-09T22:00:03.043Z,24.13
2019-02-09T22:02:31.928Z,34.00
2019-02-09T22:05:00.710Z,31.43
2019-02-09T22:07:30.245Z,32.60
2019-02-09T22:09:59.060Z,30.90
2019-02-09T22:12:28.344Z,27.33
2019-02-09T22:14:57.230Z,20.90
2019-02-09T22:17:26.025Z,28.87
2019-02-09T22:19:54.711Z,24.70
2019-02-09T22:22:23.509Z,25.10
2019-02-09T22:24:52.480Z,26.40
2019-02-09T22:27:21.185Z,28.87
2019-02-09T22:29:50.320Z,28.07
2019-02-09T22:32:19.120Z,32.43
2019-02-09T22:34:49.458Z,23.27
2019-02-09T22:37:18.392Z,20.60
2019-02-09T22:39:48.449Z,21.30
2019-02-09T22:42:17.168Z,30.03
2019-02-09T22:44:46.219Z,26.03
2019-02-09T22:47:15.048Z,21.20
2019-02-09T22:49:43.836Z,22.40
2019-02-09T22:52:12.730Z,26.83
2019-02-09T22:54:42.342Z,29.53
2019-02-09T22:57:12.076Z,32.07
2019-02-09T22:59:42.627Z,30.73
2019-02-09T23:02:11.468Z,20.80
2019-02-09T23:04:56.843Z,29.20
2019-02-09T23:07:31.716Z,33.07
2019-02-09T23:10:02.836Z,26.10
2019-02-09T23:12:31.616Z,25.83
2019-02-09T23:15:00.409Z,29.10
2019-02-09T23:17:29.308Z,24.93
2019-02-09T23:19:58.079Z,30.57
2019-02-09T23:22:26.975Z,33.57
2019-02-09T23:24:55.754Z,29.10
2019-02-09T23:27:24.539Z,29.83
2019-02-09T23:29:53.388Z,26.67
2019-02-09T23:32:22.162Z,23.43
2019-02-09T23:34:50.933Z,23.10
2019-02-09T23:37:19.747Z,24.23
2019-02-09T23:39:48.651Z,29.00
2019-02-09T23:42:17.690Z,24.47
2019-02-09T23:44:46.492Z,24.73
2019-02-09T23:47:15.267Z,28.10
2019-02-09T23:49:44.067Z,28.40
2019-02-09T23:52:12.907Z,28.33
2019-02-09T23:54:41.718Z,20.17
2019-02-09T23:57:10.506Z,35.07
2019-02-09T23:59:39.397Z,25.67
